Time;durP1;ratioP1;P1;durP2;ratioP2;P2;SDS_P1;SDS_P2;PMS_P1;PMS_P2;Temp;Humidity;BMP_temperature;BMP_pressure;BME280_temperature;BME280_humidity;BME280_pressure;Samples;Min_cycle;Max_cycle;Signal;HPM_P1;HPM_P2
2022/10/27 00:00:34;;;;;;;8.23;4.63;;;;;;;;;;5043461;28;20739;-76
2022/10/27 00:03:00;;;;;;;10.57;5.57;;;;;;;;;;5041829;28;20262;-76
2022/10/27 00:05:27;;;;;;;7.07;4.70;;;;;;;;;;5038458;28;20198;-76
2022/10/27 00:07:54;;;;;;;7.27;5.43;;;;;;;;;;5045051;28;20625;-76
2022/10/27 00:10:21;;;;;;;8.57;5.40;;;;;;;;;;5044284;28;20184;-76
2022/10/27 00:12:48;;;;;;;7.77;5.27;;;;;;;;;;5041828;28;20239;-76
2022/10/27 00:15:15;;;;;;;5.73;4.90;;;;;;;;;;5041197;28;20205;-76
2022/10/27 00:17:43;;;;;;;8.70;5.30;;;;;;;;;;5043862;28;20260;-76
2022/10/27 00:20:10;;;;;;;6.77;4.83;;;;;;;;;;5058189;28;20183;-76
2022/10/27 00:22:37;;;;;;;8.00;5.77;;;;;;;;;;5041076;28;20269;-76
2022/10/27 00:25:04;;;;;;;6.97;5.40;;;;;;;;;;5039972;28;20238;-76
2022/10/27 00:27:31;;;;;;;8.70;4.97;;;;;;;;;;5042996;28;20190;-76
2022/10/27 00:29:58;;;;;;;6.07;4.90;;;;;;;;;;5044371;28;20733;-76
2022/10/27 00:32:25;;;;;;;8.10;5.47;;;;;;;;;;5046296;28;20178;-76
2022/10/27 00:34:52;;;;;;;6.90;5.00;;;;;;;;;;5046023;28;20259;-76
2022/10/27 00:37:18;;;;;;;8.73;4.90;;;;;;;;;;5044851;28;20220;-76
2022/10/27 00:39:45;;;;;;;6.77;5.07;;;;;;;;;;5047787;28;20228;-76
2022/10/27 00:42:13;;;;;;;7.03;5.10;;;;;;;;;;5043480;28;20200;-76
2022/10/27 00:44:44;;;;;;;9.43;5.67;;;;;;;;;;5046912;28;20802;-76
2022/10/27 00:47:11;;;;;;;8.30;5.20;;;;;;;;;;5043468;28;20185;-76
2022/10/27 00:49:43;;;;;;;6.90;5.47;;;;;;;;;;5049247;28;20186;-76
2022/10/27 00:52:14;;;;;;;7.23;5.47;;;;;;;;;;5045116;28;20178;-76
2022/10/27 00:54:42;;;;;;;7.93;5.83;;;;;;;;;;5044996;28;20217;-76
2022/10/27 00:57:10;;;;;;;6.47;5.37;;;;;;;;;;5047887;28;20260;-76
2022/10/27 00:59:37;;;;;;;8.03;5.73;;;;;;;;;;5035214;28;20733;-76
2022/10/27 01:02:04;;;;;;;8.77;5.40;;;;;;;;;;5038226;28;20186;-76
2022/10/27 01:04:39;;;;;;;8.77;5.97;;;;;;;;;;5040967;28;20205;-76
2022/10/27 01:07:06;;;;;;;10.20;5.63;;;;;;;;;;5041798;28;20562;-76
2022/10/27 01:09:33;;;;;;;7.53;5.40;;;;;;;;;;5041707;28;20183;-76
2022/10/27 01:11:59;;;;;;;8.20;5.70;;;;;;;;;;5045936;28;20178;-76
2022/10/27 01:14:29;;;;;;;9.73;5.30;;;;;;;;;;5046015;28;20248;-76
2022/10/27 01:17:02;;;;;;;7.30;5.60;;;;;;;;;;5045549;28;20206;-76
2022/10/27 01:19:32;;;;;;;8.50;5.27;;;;;;;;;;5046164;28;20185;-76
2022/10/27 01:21:58;;;;;;;5.47;3.73;;;;;;;;;;5048248;28;20822;-76
2022/10/27 01:24:41;;;;;;;5.03;4.10;;;;;;;;;;5044805;28;20199;-76
2022/10/27 01:27:14;;;;;;;5.23;3.93;;;;;;;;;;5046863;28;20247;-76
2022/10/27 01:29:53;;;;;;;6.37;4.03;;;;;;;;;;5045791;28;20178;-76
2022/10/27 01:32:42;;;;;;;5.50;4.00;;;;;;;;;;5047389;28;20193;-76
2022/10/27 01:35:14;;;;;;;6.43;4.20;;;;;;;;;;5048238;28;20208;-76
2022/10/27 01:37:48;;;;;;;5.20;3.50;;;;;;;;;;5045560;28;20209;-76
2022/10/27 01:40:22;;;;;;;5.27;3.60;;;;;;;;;;5041858;28;20247;-76
2022/10/27 01:43:06;;;;;;;4.53;3.83;;;;;;;;;;5029574;28;20192;-76
2022/10/27 01:45:35;;;;;;;5.27;4.30;;;;;;;;;;5041323;28;20202;-76
2022/10/27 01:48:06;;;;;;;6.27;4.50;;;;;;;;;;5044036;28;20197;-76
2022/10/27 01:50:35;;;;;;;5.00;3.87;;;;;;;;;;5041849;28;20183;-76
2022/10/27 01:53:03;;;;;;;6.33;3.53;;;;;;;;;;5047857;28;20236;-77
2022/10/27 01:55:35;;;;;;;4.73;3.90;;;;;;;;;;5044541;28;20197;-75
2022/10/27 01:58:10;;;;;;;6.10;4.10;;;;;;;;;;5048003;28;20182;-76
2022/10/27 02:00:58;;;;;;;6.13;4.20;;;;;;;;;;5044628;28;20189;-76
2022/10/27 02:03:34;;;;;;;5.53;3.70;;;;;;;;;;5043016;28;20273;-76
2022/10/27 02:06:08;;;;;;;4.97;4.00;;;;;;;;;;5043183;28;20201;-76
2022/10/27 02:08:46;;;;;;;5.50;3.80;;;;;;;;;;5041732;28;20205;-76
2022/10/27 02:11:14;;;;;;;3.13;2.80;;;;;;;;;;5034865;28;20197;-76
2022/10/27 02:13:42;;;;;;;5.00;3.07;;;;;;;;;;5043250;28;20178;-76
2022/10/27 02:16:12;;;;;;;4.77;3.40;;;;;;;;;;5046079;28;20213;-76
2022/10/27 02:18:42;;;;;;;3.50;3.07;;;;;;;;;;5042862;28;20187;-76
2022/10/27 02:21:10;;;;;;;3.93;3.50;;;;;;;;;;5042765;28;20553;-76
2022/10/27 02:23:36;;;;;;;3.90;3.10;;;;;;;;;;5033194;28;20277;-76
2022/10/27 02:26:08;;;;;;;4.13;3.33;;;;;;;;;;5043481;28;20228;-76
2022/10/27 02:28:55;;;;;;;4.60;3.40;;;;;;;;;;5040978;28;20191;-76
2022/10/27 02:31:24;;;;;;;3.70;3.13;;;;;;;;;;5043253;28;20247;-76
2022/10/27 02:33:51;;;;;;;5.00;3.70;;;;;;;;;;5053711;28;20284;-76
2022/10/27 02:36:18;;;;;;;4.53;3.57;;;;;;;;;;5043785;28;20227;-76
2022/10/27 02:38:45;;;;;;;3.50;3.20;;;;;;;;;;5038353;28;20387;-76
2022/10/27 02:41:12;;;;;;;3.03;2.73;;;;;;;;;;5039542;28;20712;-76
2022/10/27 02:43:39;;;;;;;2.90;2.53;;;;;;;;;;5035539;28;20175;-76
2022/10/27 02:46:05;;;;;;;3.50;2.40;;;;;;;;;;5036531;28;20224;-76
2022/10/27 02:48:32;;;;;;;2.93;2.63;;;;;;;;;;5037156;28;20244;-76
2022/10/27 02:51:01;;;;;;;2.43;2.23;;;;;;;;;;5042933;28;20196;-76
2022/10/27 02:53:28;;;;;;;2.30;2.10;;;;;;;;;;5038733;28;20190;-76
2022/10/27 02:55:54;;;;;;;3.77;2.30;;;;;;;;;;5046162;28;20210;-75
2022/10/27 02:58:21;;;;;;;3.27;2.30;;;;;;;;;;5028798;28;20173;-76
2022/10/27 03:00:48;;;;;;;2.40;2.20;;;;;;;;;;5046259;28;20189;-76
2022/10/27 03:03:14;;;;;;;3.80;2.60;;;;;;;;;;5040135;28;20178;-76
2022/10/27 03:05:41;;;;;;;4.53;3.20;;;;;;;;;;5045798;28;20197;-76
2022/10/27 03:08:08;;;;;;;5.70;3.30;;;;;;;;;;5032916;28;20611;-76
2022/10/27 03:10:35;;;;;;;8.27;3.63;;;;;;;;;;5043417;28;20256;-76
2022/10/27 03:13:02;;;;;;;5.90;3.93;;;;;;;;;;5043918;28;20281;-75
2022/10/27 03:15:29;;;;;;;8.23;4.30;;;;;;;;;;5041542;28;20601;-75
2022/10/27 03:17:58;;;;;;;10.20;5.43;;;;;;;;;;5044394;28;20186;-76
2022/10/27 03:20:25;;;;;;;9.80;4.63;;;;;;;;;;5039261;28;20190;-76
2022/10/27 03:22:52;;;;;;;6.87;4.03;;;;;;;;;;5034217;28;20190;-76
2022/10/27 03:25:19;;;;;;;5.47;3.60;;;;;;;;;;5036257;28;20217;-76
2022/10/27 03:27:46;;;;;;;5.27;3.20;;;;;;;;;;5033394;28;20228;-76
2022/10/27 03:30:16;;;;;;;2.93;2.60;;;;;;;;;;5039479;28;20182;-76
2022/10/27 03:32:47;;;;;;;4.13;3.27;;;;;;;;;;5044963;28;20182;-76
2022/10/27 03:35:15;;;;;;;3.03;2.50;;;;;;;;;;5039172;28;20281;-76
2022/10/27 03:37:41;;;;;;;6.13;3.30;;;;;;;;;;5044436;28;20276;-76
2022/10/27 03:40:08;;;;;;;5.70;3.00;;;;;;;;;;5045543;28;20182;-76
2022/10/27 03:42:40;;;;;;;4.17;2.80;;;;;;;;;;5046730;28;20196;-76
2022/10/27 03:45:07;;;;;;;3.20;2.47;;;;;;;;;;5033035;28;20830;-76
2022/10/27 03:47:34;;;;;;;3.20;2.70;;;;;;;;;;5043140;28;20721;-76
2022/10/27 03:50:01;;;;;;;2.70;2.50;;;;;;;;;;5042995;28;20217;-76
2022/10/27 03:52:28;;;;;;;4.13;2.80;;;;;;;;;;5042407;28;20761;-76
2022/10/27 03:54:54;;;;;;;2.60;2.40;;;;;;;;;;5043929;28;20237;-76
2022/10/27 03:57:21;;;;;;;4.43;3.23;;;;;;;;;;5041606;28;20839;-76
2022/10/27 03:59:47;;;;;;;4.60;2.70;;;;;;;;;;5045831;28;20181;-76
2022/10/27 04:02:14;;;;;;;4.10;3.00;;;;;;;;;;5042393;28;20206;-76
2022/10/27 04:04:41;;;;;;;2.57;2.37;;;;;;;;;;5046679;28;20193;-76
2022/10/27 04:07:10;;;;;;;2.90;2.60;;;;;;;;;;5032930;28;20198;-76
2022/10/27 04:09:36;;;;;;;3.35;2.95;;;;;;;;;;5048923;28;20542;-77
2022/10/27 04:12:08;;;;;;;2.95;2.65;;;;;;;;;;5040856;28;20437;-76
2022/10/27 04:14:35;;;;;;;3.83;3.03;;;;;;;;;;5050607;28;20255;-76
2022/10/27 04:17:02;;;;;;;3.20;2.90;;;;;;;;;;5049203;28;20894;-75
2022/10/27 04:19:31;;;;;;;4.07;2.60;;;;;;;;;;5046246;28;20182;-76
2022/10/27 04:21:58;;;;;;;3.30;2.43;;;;;;;;;;5045790;28;20972;-76
2022/10/27 04:24:27;;;;;;;3.40;3.03;;;;;;;;;;5045031;28;20903;-76
2022/10/27 04:26:54;;;;;;;3.90;2.80;;;;;;;;;;5049120;28;20189;-76
2022/10/27 04:29:20;;;;;;;6.90;3.20;;;;;;;;;;5050416;28;20711;-77
2022/10/27 04:31:47;;;;;;;5.37;3.50;;;;;;;;;;5040646;28;20535;-75
2022/10/27 04:34:14;;;;;;;4.00;3.20;;;;;;;;;;5051435;28;20193;-76
2022/10/27 04:36:41;;;;;;;3.87;3.10;;;;;;;;;;5042155;28;20210;-76
2022/10/27 04:39:12;;;;;;;4.13;3.40;;;;;;;;;;5047587;28;20190;-76
2022/10/27 04:41:40;;;;;;;5.03;3.43;;;;;;;;;;5043370;28;20197;-76
2022/10/27 04:44:07;;;;;;;4.40;3.37;;;;;;;;;;5049062;28;20197;-76
2022/10/27 04:46:33;;;;;;;7.97;4.65;;;;;;;;;;5045420;28;20912;-76
2022/10/27 04:49:00;;;;;;;6.00;5.23;;;;;;;;;;5045958;28;20194;-76
2022/10/27 04:51:27;;;;;;;5.70;4.70;;;;;;;;;;5049523;28;20185;-76
2022/10/27 04:53:54;;;;;;;5.40;4.70;;;;;;;;;;5046074;28;20273;-76
2022/10/27 04:56:21;;;;;;;6.27;4.60;;;;;;;;;;5043034;28;20205;-75
2022/10/27 04:58:51;;;;;;;4.97;4.43;;;;;;;;;;5049913;28;20213;-76
2022/10/27 05:01:18;;;;;;;5.13;4.00;;;;;;;;;;5044706;28;20270;-75
2022/10/27 05:03:46;;;;;;;6.87;4.67;;;;;;;;;;5038420;28;20654;-76
2022/10/27 05:06:13;;;;;;;6.07;3.80;;;;;;;;;;5045231;28;20204;-76
2022/10/27 05:08:40;;;;;;;7.05;4.90;;;;;;;;;;5039300;28;20738;-76
2022/10/27 05:11:07;;;;;;;6.10;4.70;;;;;;;;;;5038535;28;20769;-75
2022/10/27 05:13:34;;;;;;;4.97;4.33;;;;;;;;;;5048507;28;20176;-76
2022/10/27 05:16:02;;;;;;;5.17;4.03;;;;;;;;;;5048806;28;20299;-75
2022/10/27 05:18:28;;;;;;;4.63;4.07;;;;;;;;;;5049428;28;20619;-76
2022/10/27 05:20:56;;;;;;;8.88;5.40;;;;;;;;;;5042866;28;20435;-76
2022/10/27 05:23:22;;;;;;;9.43;5.60;;;;;;;;;;5046447;28;20204;-75
2022/10/27 05:25:53;;;;;;;6.90;5.33;;;;;;;;;;5043664;28;20281;-73
2022/10/27 05:28:20;;;;;;;7.90;5.27;;;;;;;;;;5043207;28;20193;-76
2022/10/27 05:30:47;;;;;;;6.87;4.77;;;;;;;;;;5046809;28;20181;-78
2022/10/27 05:33:14;;;;;;;5.87;5.00;;;;;;;;;;5045005;28;20192;-78
2022/10/27 05:35:44;;;;;;;5.37;4.13;;;;;;;;;;5043324;28;20194;-77
2022/10/27 05:38:13;;;;;;;8.13;4.77;;;;;;;;;;5034790;28;20190;-78
2022/10/27 05:40:40;;;;;;;5.07;4.57;;;;;;;;;;5037809;28;20264;-78
2022/10/27 05:43:07;;;;;;;5.60;4.53;;;;;;;;;;5046517;28;20181;-83
2022/10/27 05:45:35;;;;;;;4.80;4.30;;;;;;;;;;5050416;28;20198;-78
2022/10/27 05:48:03;;;;;;;6.27;4.03;;;;;;;;;;5049248;28;20185;-77
2022/10/27 05:50:30;;;;;;;5.30;4.68;;;;;;;;;;5048792;28;20490;-76
2022/10/27 05:52:57;;;;;;;5.67;4.37;;;;;;;;;;5049872;28;20182;-76
2022/10/27 05:55:24;;;;;;;4.50;4.00;;;;;;;;;;5044470;28;20209;-80
2022/10/27 05:57:55;;;;;;;6.17;4.00;;;;;;;;;;5045964;28;20190;-76
2022/10/27 06:00:23;;;;;;;5.97;4.00;;;;;;;;;;5037750;28;20179;-77
2022/10/27 06:02:50;;;;;;;4.37;3.97;;;;;;;;;;5043236;28;20661;-80
2022/10/27 06:05:20;;;;;;;5.83;4.67;;;;;;;;;;5049628;28;20196;-77
2022/10/27 06:07:47;;;;;;;6.17;4.30;;;;;;;;;;5048078;28;20184;-74
2022/10/27 06:10:14;;;;;;;8.17;4.60;;;;;;;;;;5048088;28;20186;-78
2022/10/27 06:12:41;;;;;;;4.70;4.00;;;;;;;;;;5013862;28;20186;-75
2022/10/27 06:15:11;;;;;;;7.33;4.13;;;;;;;;;;5040516;28;20220;-78
2022/10/27 06:17:37;;;;;;;5.40;4.03;;;;;;;;;;5050065;28;20696;-76
2022/10/27 06:20:04;;;;;;;6.10;4.50;;;;;;;;;;5046709;28;20561;-77
2022/10/27 06:22:31;;;;;;;6.37;4.63;;;;;;;;;;5040482;28;20610;-78
2022/10/27 06:24:57;;;;;;;6.00;4.43;;;;;;;;;;5052200;28;20209;-77
2022/10/27 06:27:24;;;;;;;4.93;4.30;;;;;;;;;;5051515;28;20893;-77
2022/10/27 06:29:53;;;;;;;7.73;5.47;;;;;;;;;;5051911;28;20182;-77
2022/10/27 06:32:19;;;;;;;6.47;4.80;;;;;;;;;;5042053;28;20787;-77
2022/10/27 06:34:46;;;;;;;5.67;5.07;;;;;;;;;;5028095;28;20223;-77
2022/10/27 06:37:16;;;;;;;5.30;4.37;;;;;;;;;;5051070;28;20209;-77
2022/10/27 06:39:42;;;;;;;5.47;4.67;;;;;;;;;;5048691;28;20334;-77
2022/10/27 06:42:08;;;;;;;7.90;5.50;;;;;;;;;;5046777;28;20304;-77
2022/10/27 06:44:35;;;;;;;9.87;6.97;;;;;;;;;;5044704;28;20281;-79
2022/10/27 06:47:01;;;;;;;7.90;5.90;;;;;;;;;;5042556;28;20193;-78
2022/10/27 06:49:27;;;;;;;7.00;5.67;;;;;;;;;;5044067;28;20182;-78
2022/10/27 06:51:54;;;;;;;5.50;5.00;;;;;;;;;;5043786;28;20680;-78
2022/10/27 06:54:23;;;;;;;6.43;5.20;;;;;;;;;;5046598;28;20261;-78
2022/10/27 06:56:49;;;;;;;6.53;5.60;;;;;;;;;;5047947;28;20281;-78
2022/10/27 06:59:16;;;;;;;6.53;5.10;;;;;;;;;;5047144;28;20182;-78
2022/10/27 07:01:42;;;;;;;4.60;4.20;;;;;;;;;;5036876;28;20216;-79
2022/10/27 07:04:10;;;;;;;4.40;4.00;;;;;;;;;;5038634;28;20232;-78
2022/10/27 07:06:36;;;;;;;4.50;4.10;;;;;;;;;;5048328;28;20272;-80
2022/10/27 07:09:02;;;;;;;4.43;4.00;;;;;;;;;;5048745;28;20673;-79
2022/10/27 07:11:28;;;;;;;5.60;5.10;;;;;;;;;;5048912;28;20264;-79
2022/10/27 07:13:55;;;;;;;5.80;4.40;;;;;;;;;;5048793;28;20198;-80
2022/10/27 07:16:22;;;;;;;7.47;6.67;;;;;;;;;;5039144;28;20441;-79
2022/10/27 07:18:49;;;;;;;7.47;6.67;;;;;;;;;;5047856;28;20285;-79
2022/10/27 07:21:16;;;;;;;8.43;6.57;;;;;;;;;;5045722;28;20182;-78
2022/10/27 07:23:42;;;;;;;11.57;6.80;;;;;;;;;;5024603;28;20297;-82
2022/10/27 07:26:09;;;;;;;10.30;5.93;;;;;;;;;;5038151;28;20842;-78
2022/10/27 07:28:36;;;;;;;7.30;6.33;;;;;;;;;;5038330;28;20514;-78
2022/10/27 07:31:05;;;;;;;8.77;6.80;;;;;;;;;;5037134;28;20194;-77
2022/10/27 07:33:31;;;;;;;17.83;7.67;;;;;;;;;;5041257;28;20185;-83
2022/10/27 07:35:58;;;;;;;26.97;7.93;;;;;;;;;;5041072;28;20430;-79
2022/10/27 07:38:28;;;;;;;41.17;6.90;;;;;;;;;;5045889;28;20181;-79
2022/10/27 07:40:56;;;;;;;7.33;6.60;;;;;;;;;;5047380;28;20190;-80
2022/10/27 07:43:25;;;;;;;7.87;6.17;;;;;;;;;;5035858;28;20711;-82
2022/10/27 07:45:52;;;;;;;7.93;5.70;;;;;;;;;;5043998;28;20203;-80
2022/10/27 07:48:19;;;;;;;6.50;5.90;;;;;;;;;;5031825;28;20221;-80
2022/10/27 07:50:45;;;;;;;8.80;6.17;;;;;;;;;;5045925;28;20624;-80
2022/10/27 07:53:14;;;;;;;8.67;6.10;;;;;;;;;;5048786;28;20190;-79
2022/10/27 07:55:41;;;;;;;7.07;6.37;;;;;;;;;;5043529;28;20275;-76
2022/10/27 07:58:11;;;;;;;7.63;6.47;;;;;;;;;;5050770;28;20220;-78
2022/10/27 08:00:40;;;;;;;7.07;6.37;;;;;;;;;;5050853;28;20178;-81
2022/10/27 08:03:08;;;;;;;12.67;7.77;;;;;;;;;;5050040;28;20191;-78
2022/10/27 08:05:35;;;;;;;10.77;7.83;;;;;;;;;;5050688;28;20194;-79
2022/10/27 08:08:06;;;;;;;9.13;6.70;;;;;;;;;;5043552;28;20292;-77
2022/10/27 08:10:34;;;;;;;9.33;7.07;;;;;;;;;;5040626;28;20649;-80
2022/10/27 08:13:01;;;;;;;12.83;7.47;;;;;;;;;;5027016;28;20181;-79
2022/10/27 08:15:27;;;;;;;9.30;7.13;;;;;;;;;;5041298;28;20678;-80
2022/10/27 08:17:56;;;;;;;8.43;7.13;;;;;;;;;;5058601;28;20237;-80
2022/10/27 08:20:23;;;;;;;8.33;6.73;;;;;;;;;;5042375;28;20182;-80
2022/10/27 08:22:54;;;;;;;9.97;7.57;;;;;;;;;;5041899;28;20260;-81
2022/10/27 08:25:21;;;;;;;9.90;8.00;;;;;;;;;;5029097;28;20198;-82
2022/10/27 08:27:50;;;;;;;13.33;7.97;;;;;;;;;;5048832;28;20721;-79
2022/10/27 08:30:17;;;;;;;9.50;8.50;;;;;;;;;;5050632;28;20718;-80
2022/10/27 08:32:44;;;;;;;10.00;8.03;;;;;;;;;;5046158;28;20312;-80
2022/10/27 08:35:10;;;;;;;14.23;8.83;;;;;;;;;;5038619;28;20211;-81
2022/10/27 08:37:37;;;;;;;11.50;8.87;;;;;;;;;;5044475;28;20285;-80
2022/10/27 08:40:03;;;;;;;10.63;8.50;;;;;;;;;;5043692;28;20198;-80
2022/10/27 08:42:36;;;;;;;9.97;8.33;;;;;;;;;;5046467;28;20201;-80
2022/10/27 08:45:15;;;;;;;16.50;8.97;;;;;;;;;;5044759;28;20205;-80
2022/10/27 08:47:42;;;;;;;11.00;8.93;;;;;;;;;;5044544;28;20229;-80
2022/10/27 08:50:16;;;;;;;8.27;7.43;;;;;;;;;;5046536;28;20178;-79
2022/10/27 08:52:52;;;;;;;14.27;8.17;;;;;;;;;;5046472;28;20335;-79
2022/10/27 08:55:45;;;;;;;9.23;7.87;;;;;;;;;;5028495;28;20232;-79
2022/10/27 08:58:31;;;;;;;9.30;7.57;;;;;;;;;;5054187;28;20259;-80
2022/10/27 09:01:24;;;;;;;7.77;7.03;;;;;;;;;;5041849;28;20184;-80
2022/10/27 09:03:51;;;;;;;9.20;7.40;;;;;;;;;;5044072;28;20201;-80
2022/10/27 09:06:22;;;;;;;9.80;7.23;;;;;;;;;;5044395;28;20309;-80
2022/10/27 09:08:51;;;;;;;8.73;7.83;;;;;;;;;;5045104;28;20198;-81
2022/10/27 09:11:41;;;;;;;8.43;7.00;;;;;;;;;;5049315;28;20216;-80
2022/10/27 09:14:12;;;;;;;8.27;6.73;;;;;;;;;;5037718;28;20194;-81
2022/10/27 09:16:49;;;;;;;7.40;6.60;;;;;;;;;;5047643;28;20403;-80
2022/10/27 09:19:19;;;;;;;8.17;7.33;;;;;;;;;;5048456;28;20178;-80
2022/10/27 09:21:45;;;;;;;8.03;7.20;;;;;;;;;;5043603;28;20458;-79
2022/10/27 09:24:13;;;;;;;9.60;7.03;;;;;;;;;;5034521;28;20191;-80
2022/10/27 09:26:41;;;;;;;8.83;6.83;;;;;;;;;;5045578;28;20181;-80
2022/10/27 09:29:18;;;;;;;9.67;7.27;;;;;;;;;;5044778;28;20301;-81
2022/10/27 09:31:48;;;;;;;8.00;7.20;;;;;;;;;;5047666;28;20435;-80
2022/10/27 09:34:20;;;;;;;8.23;7.43;;;;;;;;;;5039893;28;20313;-75
2022/10/27 09:36:47;;;;;;;9.33;8.30;;;;;;;;;;5033247;28;20198;-75
2022/10/27 09:39:14;;;;;;;8.90;7.97;;;;;;;;;;5038858;28;20191;-74
2022/10/27 09:41:40;;;;;;;9.00;8.07;;;;;;;;;;5046049;28;20201;-75
2022/10/27 09:44:17;;;;;;;10.97;8.80;;;;;;;;;;5040253;28;20260;-75
2022/10/27 09:46:45;;;;;;;9.27;8.23;;;;;;;;;;5043711;28;20216;-75
2022/10/27 09:49:12;;;;;;;14.67;9.80;;;;;;;;;;5047540;28;20449;-76
2022/10/27 09:51:45;;;;;;;12.13;9.43;;;;;;;;;;5046036;28;20185;-75
2022/10/27 09:54:31;;;;;;;12.87;10.80;;;;;;;;;;5048106;28;20540;-75
2022/10/27 09:57:02;;;;;;;11.43;9.73;;;;;;;;;;5039781;28;20503;-76
2022/10/27 09:59:31;;;;;;;12.00;10.73;;;;;;;;;;5047715;28;20196;-74
2022/10/27 10:01:58;;;;;;;12.17;9.53;;;;;;;;;;5041700;28;20665;-74
2022/10/27 10:04:28;;;;;;;11.20;10.00;;;;;;;;;;5042332;28;20197;-77
2022/10/27 10:06:55;;;;;;;9.60;8.43;;;;;;;;;;5038571;28;20206;-75
2022/10/27 10:09:28;;;;;;;11.77;9.90;;;;;;;;;;5035807;28;20471;-77
2022/10/27 10:12:13;;;;;;;14.43;11.47;;;;;;;;;;5037657;28;20216;-76
2022/10/27 10:14:42;;;;;;;14.73;11.53;;;;;;;;;;5033962;28;20204;-77
2022/10/27 10:17:41;;;;;;;14.63;12.20;;;;;;;;;;5043474;28;20292;-77
2022/10/27 10:20:27;;;;;;;16.47;11.70;;;;;;;;;;5003772;28;20272;-77
2022/10/27 10:22:54;;;;;;;15.73;12.37;;;;;;;;;;5025656;28;20222;-75
2022/10/27 10:25:31;;;;;;;16.07;12.90;;;;;;;;;;5045508;28;20209;-77
2022/10/27 10:27:59;;;;;;;18.00;13.30;;;;;;;;;;5049259;28;20256;-77
2022/10/27 10:30:26;;;;;;;14.33;11.57;;;;;;;;;;5016319;28;20182;-76
2022/10/27 10:32:56;;;;;;;15.80;13.77;;;;;;;;;;5039299;28;20187;-76
2022/10/27 10:35:41;;;;;;;20.17;15.47;;;;;;;;;;5043543;28;20233;-76
2022/10/27 10:38:19;;;;;;;21.50;15.87;;;;;;;;;;5046603;28;20224;-76
2022/10/27 10:40:57;;;;;;;23.23;17.70;;;;;;;;;;5047007;28;20181;-76
2022/10/27 10:43:24;;;;;;;23.07;16.73;;;;;;;;;;5040115;28;20178;-78
2022/10/27 10:45:54;;;;;;;22.90;16.03;;;;;;;;;;5047820;28;20233;-78
2022/10/27 10:48:26;;;;;;;21.17;18.13;;;;;;;;;;5048246;28;20181;-78
2022/10/27 10:50:53;;;;;;;23.33;17.60;;;;;;;;;;5037172;28;20592;-77
2022/10/27 10:53:25;;;;;;;28.17;20.03;;;;;;;;;;5039815;28;20189;-76
2022/10/27 10:55:53;;;;;;;26.50;19.50;;;;;;;;;;5044177;28;20234;-80
2022/10/27 10:58:24;;;;;;;20.53;15.93;;;;;;;;;;5028655;28;20287;-77
2022/10/27 11:00:55;;;;;;;22.27;17.57;;;;;;;;;;5036429;28;20196;-75
2022/10/27 11:03:24;;;;;;;24.87;18.77;;;;;;;;;;5033317;28;20265;-75
2022/10/27 11:05:53;;;;;;;24.47;17.03;;;;;;;;;;5047493;28;20873;-76
2022/10/27 11:08:21;;;;;;;21.83;16.80;;;;;;;;;;5046512;28;20540;-75
2022/10/27 11:10:49;;;;;;;21.57;15.63;;;;;;;;;;5040482;28;20600;-74
2022/10/27 11:13:22;;;;;;;21.00;15.50;;;;;;;;;;5033765;28;20670;-72
2022/10/27 11:15:58;;;;;;;20.83;16.47;;;;;;;;;;5041732;28;20213;-71
2022/10/27 11:18:29;;;;;;;26.17;17.30;;;;;;;;;;5035778;28;20228;-75
2022/10/27 11:21:01;;;;;;;17.40;14.80;;;;;;;;;;5043606;28;20186;-76
2022/10/27 11:23:35;;;;;;;22.93;16.63;;;;;;;;;;5052552;28;20185;-75
2022/10/27 11:26:03;;;;;;;24.73;16.47;;;;;;;;;;5036317;28;20222;-78
2022/10/27 11:28:37;;;;;;;19.77;16.33;;;;;;;;;;5038219;28;20645;-75
2022/10/27 11:31:07;;;;;;;18.60;15.00;;;;;;;;;;5045793;28;20641;-76
2022/10/27 11:33:45;;;;;;;23.40;15.63;;;;;;;;;;5047054;28;20272;-76
2022/10/27 11:36:20;;;;;;;21.47;15.43;;;;;;;;;;5041521;28;20216;-76
2022/10/27 11:39:06;;;;;;;22.93;15.43;;;;;;;;;;5044906;28;20263;-76
2022/10/27 11:41:37;;;;;;;22.40;14.80;;;;;;;;;;5039148;28;20666;-75
2022/10/27 11:44:15;;;;;;;20.10;13.67;;;;;;;;;;5047427;28;20673;-75
2022/10/27 11:46:44;;;;;;;18.53;14.20;;;;;;;;;;5043623;28;20732;-75
2022/10/27 11:49:20;;;;;;;17.00;12.67;;;;;;;;;;5041976;28;20205;-76
2022/10/27 11:51:48;;;;;;;18.87;12.97;;;;;;;;;;5029540;28;20190;-76
2022/10/27 11:54:16;;;;;;;19.93;12.23;;;;;;;;;;5039898;28;20224;-76
2022/10/27 11:56:42;;;;;;;17.97;13.03;;;;;;;;;;5044155;28;20209;-77
2022/10/27 11:59:38;;;;;;;15.77;11.30;;;;;;;;;;5039373;28;20181;-75
2022/10/27 12:02:24;;;;;;;16.90;11.53;;;;;;;;;;5038684;28;20185;-75
2022/10/27 12:04:51;;;;;;;14.63;11.03;;;;;;;;;;5041153;28;20209;-75
2022/10/27 12:07:36;;;;;;;16.00;10.23;;;;;;;;;;5033901;28;20205;-77
2022/10/27 12:10:11;;;;;;;16.23;10.40;;;;;;;;;;5046446;28;20198;-76
2022/10/27 12:13:06;;;;;;;14.33;9.93;;;;;;;;;;5043714;28;20193;-75
2022/10/27 12:15:46;;;;;;;13.33;9.13;;;;;;;;;;5034964;28;20267;-75
2022/10/27 12:18:31;;;;;;;12.53;8.40;;;;;;;;;;5029147;28;20347;-75
2022/10/27 12:21:06;;;;;;;14.07;7.60;;;;;;;;;;5010523;28;20258;-76
2022/10/27 12:23:37;;;;;;;10.57;7.33;;;;;;;;;;5041291;28;20180;-76
2022/10/27 12:26:20;;;;;;;10.60;6.57;;;;;;;;;;5045164;28;20205;-77
2022/10/27 12:28:48;;;;;;;10.47;6.63;;;;;;;;;;5046493;28;20218;-76
2022/10/27 12:31:18;;;;;;;12.13;6.80;;;;;;;;;;5045000;28;20192;-78
2022/10/27 12:33:52;;;;;;;11.40;6.13;;;;;;;;;;5048392;28;20543;-76
2022/10/27 12:36:25;;;;;;;9.60;5.57;;;;;;;;;;5041560;28;20213;-79
2022/10/27 12:38:52;;;;;;;10.00;5.33;;;;;;;;;;5043532;28;20826;-76
2022/10/27 12:41:34;;;;;;;8.90;5.90;;;;;;;;;;5047464;28;20190;-76
2022/10/27 12:44:05;;;;;;;10.30;5.97;;;;;;;;;;5047033;28;20210;-75
2022/10/27 12:46:31;;;;;;;11.43;6.40;;;;;;;;;;5043959;28;20189;-76
2022/10/27 12:49:10;;;;;;;9.60;5.23;;;;;;;;;;5047242;28;20588;-77
2022/10/27 12:51:53;;;;;;;8.13;5.20;;;;;;;;;;5046541;28;20235;-78
2022/10/27 12:54:31;;;;;;;6.73;4.50;;;;;;;;;;5039161;28;20204;-77
2022/10/27 12:57:12;;;;;;;8.87;4.37;;;;;;;;;;5044385;28;20222;-76
2022/10/27 12:59:57;;;;;;;9.20;4.40;;;;;;;;;;5047872;28;20676;-77
2022/10/27 13:02:27;;;;;;;7.70;4.00;;;;;;;;;;5036071;28;20186;-77
2022/10/27 13:04:56;;;;;;;10.67;4.30;;;;;;;;;;5049967;28;20224;-79
2022/10/27 13:07:54;;;;;;;7.03;3.80;;;;;;;;;;5037889;28;20257;-77
2022/10/27 13:10:23;;;;;;;8.60;4.07;;;;;;;;;;5040821;28;20186;-78
2022/10/27 13:12:55;;;;;;;7.20;3.60;;;;;;;;;;5046746;28;20731;-77
2022/10/27 13:15:40;;;;;;;6.67;3.67;;;;;;;;;;5045851;28;20201;-78
2022/10/27 13:18:26;;;;;;;7.73;3.40;;;;;;;;;;5037750;28;20369;-78
2022/10/27 13:21:10;;;;;;;5.83;3.47;;;;;;;;;;5046384;28;20183;-77
2022/10/27 13:23:42;;;;;;;7.97;3.33;;;;;;;;;;5040681;28;20709;-78
2022/10/27 13:26:08;;;;;;;7.40;3.17;;;;;;;;;;5039444;28;20574;-76
2022/10/27 13:28:47;;;;;;;5.13;2.57;;;;;;;;;;5037787;28;20180;-75
2022/10/27 13:31:16;;;;;;;8.13;3.00;;;;;;;;;;5048019;28;20170;-74
2022/10/27 13:33:58;;;;;;;7.67;3.53;;;;;;;;;;5042851;28;20718;-74
2022/10/27 13:36:26;;;;;;;7.30;3.23;;;;;;;;;;5039239;28;20577;-74
2022/10/27 13:39:11;;;;;;;6.23;3.33;;;;;;;;;;5049171;28;20359;-75
2022/10/27 13:41:57;;;;;;;8.20;3.63;;;;;;;;;;5047170;28;20244;-75
2022/10/27 13:44:27;;;;;;;5.63;3.30;;;;;;;;;;5036476;28;20679;-77
2022/10/27 13:47:05;;;;;;;5.97;3.30;;;;;;;;;;5043941;28;20198;-75
2022/10/27 13:49:41;;;;;;;7.90;3.17;;;;;;;;;;5045041;28;20179;-75
2022/10/27 13:52:13;;;;;;;6.97;3.30;;;;;;;;;;5046913;28;20661;-77
2022/10/27 13:54:52;;;;;;;7.43;3.10;;;;;;;;;;5045499;28;20209;-78
2022/10/27 13:57:25;;;;;;;6.13;2.80;;;;;;;;;;5036897;28;20209;-77
2022/10/27 13:59:53;;;;;;;7.10;3.27;;;;;;;;;;5042238;28;20183;-77
2022/10/27 14:02:26;;;;;;;6.20;3.00;;;;;;;;;;5037154;28;20285;-76
2022/10/27 14:05:00;;;;;;;6.70;3.00;;;;;;;;;;5041179;28;20234;-77
2022/10/27 14:07:27;;;;;;;5.73;3.27;;;;;;;;;;5043578;28;20293;-76
2022/10/27 14:09:54;;;;;;;8.47;3.47;;;;;;;;;;5044315;28;20190;-77
2022/10/27 14:12:27;;;;;;;8.90;3.30;;;;;;;;;;5028672;28;20633;-78
2022/10/27 14:14:56;;;;;;;7.17;3.30;;;;;;;;;;5034589;28;20828;-77
2022/10/27 14:17:25;;;;;;;8.80;3.50;;;;;;;;;;5038701;28;20311;-77
2022/10/27 14:19:58;;;;;;;8.40;3.43;;;;;;;;;;5045794;28;20189;-77
2022/10/27 14:22:40;;;;;;;7.43;3.63;;;;;;;;;;5039697;28;20188;-76
2022/10/27 14:25:22;;;;;;;8.23;3.30;;;;;;;;;;5039986;28;20211;-76
2022/10/27 14:27:49;;;;;;;7.77;3.27;;;;;;;;;;5014987;28;20251;-76
2022/10/27 14:30:17;;;;;;;7.27;3.23;;;;;;;;;;5037230;28;20261;-77
2022/10/27 14:32:47;;;;;;;9.37;3.20;;;;;;;;;;5028238;28;20175;-76
2022/10/27 14:35:15;;;;;;;7.47;3.30;;;;;;;;;;5032695;28;20205;-76
2022/10/27 14:37:42;;;;;;;6.40;3.07;;;;;;;;;;5037197;28;20200;-76
2022/10/27 14:40:17;;;;;;;9.17;3.30;;;;;;;;;;5037956;28;20205;-77
2022/10/27 14:42:44;;;;;;;6.13;3.30;;;;;;;;;;5035586;28;20239;-76
2022/10/27 14:45:22;;;;;;;7.50;3.30;;;;;;;;;;5041101;28;20217;-76
2022/10/27 14:48:02;;;;;;;6.73;3.47;;;;;;;;;;5043395;28;20635;-76
2022/10/27 14:50:40;;;;;;;8.40;3.40;;;;;;;;;;5039656;28;20235;-78
2022/10/27 14:53:19;;;;;;;7.30;3.50;;;;;;;;;;5041517;28;20190;-76
2022/10/27 14:56:01;;;;;;;5.70;3.30;;;;;;;;;;5040876;28;20288;-76
2022/10/27 14:58:28;;;;;;;7.13;3.30;;;;;;;;;;5030836;28;20667;-76